createdAt,value
2023-01-07T00:00:40.051Z,-24.03
2023-01-07T00:05:44.034Z,-24.22
2023-01-07T00:10:46.601Z,-24.01
2023-01-07T00:15:49.261Z,-23.97
2023-01-07T00:20:51.828Z,-24.08
2023-01-07T00:26:03.235Z,-23.76
2023-01-07T00:31:14.382Z,-24.28
2023-01-07T00:36:17.159Z,-24.43
2023-01-07T00:41:19.703Z,-24.43
2023-01-07T00:46:22.921Z,-24.33
2023-01-07T00:51:25.658Z,-24.00
2023-01-07T00:56:28.233Z,-24.00
2023-01-07T01:01:31.043Z,-24.12
2023-01-07T01:06:33.748Z,-24.08
2023-01-07T01:11:36.426Z,-24.04
2023-01-07T01:16:39.443Z,-24.22
2023-01-07T01:21:42.337Z,-24.21
2023-01-07T01:26:44.991Z,-24.33
2023-01-07T01:31:48.665Z,-24.15
2023-01-07T01:36:51.673Z,-24.17
2023-01-07T01:41:54.510Z,-24.26
2023-01-07T01:46:57.222Z,-24.17
2023-01-07T01:52:13.084Z,-24.38
2023-01-07T01:57:20.686Z,-24.33
2023-01-07T02:02:29.019Z,-24.44
2023-01-07T02:07:32.216Z,-24.26
2023-01-07T02:12:56.751Z,-24.33
2023-01-07T02:18:15.375Z,-24.33
2023-01-07T02:23:44.078Z,-23.99
2023-01-07T02:29:22.684Z,-23.96
2023-01-07T02:34:50.501Z,-24.47
2023-01-07T02:40:05.307Z,-24.81
2023-01-07T02:45:07.862Z,-25.07
2023-01-07T02:50:14.656Z,-25.38
2023-01-07T02:55:22.424Z,-24.73
2023-01-07T03:00:47.116Z,-24.55
2023-01-07T03:06:05.086Z,-24.62
2023-01-07T03:11:10.213Z,-24.94
2023-01-07T03:16:36.618Z,-24.77
2023-01-07T03:21:39.483Z,-24.72
2023-01-07T03:26:48.900Z,-25.12
2023-01-07T03:32:13.413Z,-25.02
2023-01-07T03:37:18.721Z,-25.39
2023-01-07T03:42:42.316Z,-25.16
2023-01-07T03:47:53.304Z,-24.93
2023-01-07T03:52:57.106Z,-24.97
2023-01-07T03:58:00.625Z,-24.86
2023-01-07T04:03:03.418Z,-24.67
2023-01-07T04:08:14.086Z,-24.71
2023-01-07T04:13:17.663Z,-24.49
2023-01-07T04:18:22.837Z,-24.69
2023-01-07T04:23:25.578Z,-24.74
2023-01-07T04:28:30.087Z,-24.73
2023-01-07T04:33:33.240Z,-24.68
2023-01-07T04:38:36.120Z,-25.09
2023-01-07T04:43:40.045Z,-24.81
2023-01-07T04:48:43.759Z,-24.86
2023-01-07T04:53:47.833Z,-25.14
2023-01-07T04:58:50.609Z,-24.94
2023-01-07T05:03:54.146Z,-25.11
2023-01-07T05:08:56.825Z,-24.86
2023-01-07T05:14:00.984Z,-24.89
2023-01-07T05:19:06.912Z,-24.81
2023-01-07T05:24:14.409Z,-24.91
2023-01-07T05:29:17.483Z,-25.07
2023-01-07T05:34:21.705Z,-25.07
2023-01-07T05:39:26.082Z,-25.16
2023-01-07T05:44:29.273Z,-25.25
2023-01-07T05:49:31.923Z,-25.26
2023-01-07T05:54:34.483Z,-25.22
2023-01-07T05:59:37.077Z,-25.21
2023-01-07T06:04:39.800Z,-25.16
2023-01-07T06:09:42.476Z,-24.97
2023-01-07T06:14:45.051Z,-25.08
2023-01-07T06:19:47.979Z,-25.32
2023-01-07T06:24:50.627Z,-25.03
2023-01-07T06:29:54.289Z,-25.19
2023-01-07T06:34:56.906Z,-25.21
2023-01-07T06:39:59.553Z,-25.15
2023-01-07T06:45:02.185Z,-25.17
2023-01-07T06:50:06.272Z,-25.01
2023-01-07T06:55:09.515Z,-25.07
2023-01-07T07:00:12.740Z,-25.21
2023-01-07T07:05:15.704Z,-25.14
2023-01-07T07:10:18.420Z,-25.02
2023-01-07T07:15:21.030Z,-24.86
2023-01-07T07:20:23.808Z,-24.31
2023-01-07T07:25:26.419Z,-24.19
2023-01-07T07:30:45.524Z,-24.06
2023-01-07T07:35:49.701Z,-24.12
2023-01-07T07:40:52.286Z,-23.93
2023-01-07T07:45:54.967Z,-23.97
2023-01-07T07:50:57.768Z,-23.86
2023-01-07T07:56:00.415Z,-24.08
2023-01-07T08:01:03.180Z,-23.83
2023-01-07T08:06:06.462Z,-23.68
2023-01-07T08:11:09.334Z,-23.35
2023-01-07T08:16:12.002Z,-23.44
2023-01-07T08:21:14.876Z,-23.32
2023-01-07T08:26:20.258Z,-23.31
2023-01-07T08:31:23.668Z,-23.24
2023-01-07T08:36:26.724Z,-23.20
2023-01-07T08:41:29.333Z,-23.05
2023-01-07T08:46:34.870Z,-22.91
2023-01-07T08:51:37.695Z,-22.76
2023-01-07T08:56:40.368Z,-22.73
2023-01-07T09:01:43.089Z,-22.61
2023-01-07T09:06:45.839Z,-22.45
2023-01-07T09:11:48.386Z,-22.13
2023-01-07T09:16:50.995Z,-22.25
2023-01-07T09:21:53.583Z,-22.11
2023-01-07T09:26:56.170Z,-21.90
2023-01-07T09:31:58.881Z,-21.90
2023-01-07T09:37:01.559Z,-21.82
2023-01-07T09:42:43.858Z,-21.70
2023-01-07T09:47:50.367Z,-21.46
2023-01-07T09:52:57.562Z,-21.58
2023-01-07T09:58:00.431Z,-21.38
2023-01-07T10:03:30.333Z,-21.28
2023-01-07T10:08:45.858Z,-21.42
2023-01-07T10:14:04.370Z,-21.30
2023-01-07T10:19:06.843Z,-21.17
2023-01-07T10:24:21.951Z,-21.03
2023-01-07T10:29:44.820Z,-20.97
2023-01-07T10:34:50.385Z,-21.20
2023-01-07T10:40:17.885Z,-20.83
2023-01-07T10:45:52.819Z,-20.70
2023-01-07T10:51:34.029Z,-20.62
2023-01-07T10:56:42.442Z,-20.49
2023-01-07T11:01:52.300Z,-20.35
2023-01-07T11:07:07.738Z,-20.29
2023-01-07T11:12:39.002Z,-20.03
2023-01-07T11:18:21.928Z,-19.93
2023-01-07T11:23:38.216Z,-19.97
2023-01-07T11:28:56.076Z,-19.93
2023-01-07T11:34:02.902Z,-19.65
2023-01-07T11:39:22.725Z,-19.58
2023-01-07T11:44:26.916Z,-19.42
2023-01-07T11:49:31.171Z,-19.33
2023-01-07T11:54:33.993Z,-19.51
2023-01-07T11:59:36.545Z,-19.51
2023-01-07T12:04:40.433Z,-19.63
2023-01-07T12:09:45.583Z,-19.50
2023-01-07T12:14:48.859Z,-19.52
2023-01-07T12:20:21.418Z,-19.80
2023-01-07T12:25:24.352Z,-19.60
2023-01-07T12:30:32.773Z,-19.46
2023-01-07T12:35:42.948Z,-19.28
2023-01-07T12:40:51.439Z,-19.33
2023-01-07T12:46:00.974Z,-19.81
2023-01-07T12:51:14.173Z,-19.81
2023-01-07T12:56:27.515Z,-20.00
2023-01-07T13:01:37.108Z,-19.71
2023-01-07T13:07:05.575Z,-19.80
2023-01-07T13:12:45.585Z,-20.13
2023-01-07T13:17:50.534Z,-20.23
2023-01-07T13:22:56.613Z,-20.33
2023-01-07T13:28:14.298Z,-20.57
2023-01-07T13:33:25.236Z,-21.03
2023-01-07T13:38:38.731Z,-20.73
2023-01-07T13:43:59.262Z,-20.75
2023-01-07T13:49:02.025Z,-20.77
2023-01-07T13:54:04.799Z,-20.84
2023-01-07T13:59:31.046Z,-20.78
2023-01-07T14:04:36.936Z,-20.99
2023-01-07T14:09:41.173Z,-21.23
2023-01-07T14:15:23.143Z,-21.06
2023-01-07T14:21:21.411Z,-21.10
2023-01-07T14:26:52.843Z,-21.02
2023-01-07T14:32:29.773Z,-20.93
2023-01-07T14:37:36.963Z,-20.87
2023-01-07T14:42:43.037Z,-21.35
2023-01-07T14:47:45.687Z,-21.29
2023-01-07T14:53:22.423Z,-21.28
2023-01-07T14:58:50.867Z,-21.23
2023-01-07T15:04:02.490Z,-21.27
2023-01-07T15:09:32.498Z,-21.30
2023-01-07T15:14:53.902Z,-21.48
2023-01-07T15:19:58.025Z,-21.04
2023-01-07T15:25:09.214Z,-21.16
2023-01-07T15:30:26.481Z,-21.11
2023-01-07T15:35:34.376Z,-20.98
2023-01-07T15:40:37.546Z,-20.97
2023-01-07T15:45:40.338Z,-21.00
2023-01-07T15:50:46.089Z,-20.99
2023-01-07T15:56:03.183Z,-21.09
2023-01-07T16:01:08.660Z,-21.18
2023-01-07T16:06:36.647Z,-21.10
2023-01-07T16:11:39.556Z,-21.09
2023-01-07T16:16:42.652Z,-21.05
2023-01-07T16:21:58.402Z,-20.94
2023-01-07T16:27:05.430Z,-20.86
2023-01-07T16:32:09.069Z,-20.83
2023-01-07T16:37:15.944Z,-20.98
2023-01-07T16:42:23.663Z,-21.02
2023-01-07T16:47:32.385Z,-21.43
2023-01-07T16:52:35.083Z,-21.41
2023-01-07T16:57:42.682Z,-21.51
2023-01-07T17:02:57.107Z,-21.59
2023-01-07T17:08:05.589Z,-21.52
2023-01-07T17:13:14.674Z,-21.57
2023-01-07T17:18:17.738Z,-21.59
2023-01-07T17:23:26.833Z,-21.57
2023-01-07T17:28:33.181Z,-21.40
2023-01-07T17:33:37.321Z,-21.31
2023-01-07T17:38:40.163Z,-21.51
2023-01-07T17:43:43.288Z,-21.58
2023-01-07T17:48:46.332Z,-21.38
2023-01-07T17:53:51.141Z,-21.17
2023-01-07T17:58:55.955Z,-21.36
2023-01-07T18:03:59.375Z,-21.71
2023-01-07T18:09:05.169Z,-21.63
2023-01-07T18:14:15.713Z,-21.53
2023-01-07T18:19:20.029Z,-21.39
2023-01-07T18:24:22.956Z,-21.44
2023-01-07T18:29:26.152Z,-21.60
2023-01-07T18:34:29.364Z,-21.52
2023-01-07T18:39:32.254Z,-21.50
2023-01-07T18:44:35.502Z,-21.49
2023-01-07T18:49:38.609Z,-21.56
2023-01-07T18:54:41.713Z,-21.46
2023-01-07T18:59:44.758Z,-21.69
2023-01-07T19:04:49.051Z,-21.55
2023-01-07T19:09:53.227Z,-21.75
2023-01-07T19:14:56.716Z,-21.53
2023-01-07T19:19:59.839Z,-21.55
2023-01-07T19:25:02.938Z,-21.46
2023-01-07T19:30:07.523Z,-21.58
2023-01-07T19:35:10.681Z,-21.66
2023-01-07T19:40:13.995Z,-21.80
2023-01-07T19:45:16.823Z,-21.90
2023-01-07T19:50:19.716Z,-21.67
2023-01-07T19:55:24.651Z,-21.59
2023-01-07T20:00:27.432Z,-21.87
2023-01-07T20:05:30.680Z,-21.68
2023-01-07T20:10:35.624Z,-21.50
2023-01-07T20:15:38.516Z,-21.17
2023-01-07T20:20:41.644Z,-20.98
2023-01-07T20:25:48.279Z,-21.04
2023-01-07T20:30:51.374Z,-21.01
2023-01-07T20:36:06.700Z,-20.98
2023-01-07T20:41:13.159Z,-21.11
2023-01-07T20:46:16.114Z,-21.22
2023-01-07T20:51:19.384Z,-21.14
2023-01-07T20:56:24.420Z,-21.39
2023-01-07T21:01:27.588Z,-21.02
2023-01-07T21:06:31.011Z,-21.27
2023-01-07T21:11:34.021Z,-21.00
2023-01-07T21:16:37.632Z,-21.06
2023-01-07T21:21:40.718Z,-21.26
2023-01-07T21:26:44.525Z,-21.21
2023-01-07T21:31:47.440Z,-21.21
2023-01-07T21:36:53.062Z,-21.05
2023-01-07T21:41:55.724Z,-21.37
2023-01-07T21:46:58.263Z,-21.34
2023-01-07T21:52:00.891Z,-21.40
2023-01-07T21:57:03.695Z,-21.46
2023-01-07T22:02:06.477Z,-21.29
2023-01-07T22:07:19.460Z,-21.75
2023-01-07T22:12:23.452Z,-21.95
2023-01-07T22:17:26.840Z,-21.74
2023-01-07T22:22:29.427Z,-21.71
2023-01-07T22:27:32.113Z,-21.45
2023-01-07T22:32:34.731Z,-21.47
2023-01-07T22:37:37.422Z,-21.49
2023-01-07T22:42:55.893Z,-21.39
2023-01-07T22:47:58.702Z,-21.68
2023-01-07T22:53:01.430Z,-21.47
2023-01-07T22:58:04.961Z,-21.45
2023-01-07T23:03:07.595Z,-21.35
2023-01-07T23:08:10.956Z,-21.54
2023-01-07T23:13:13.530Z,-21.29
2023-01-07T23:18:16.957Z,-21.50
2023-01-07T23:23:19.592Z,-21.31
2023-01-07T23:28:22.177Z,-21.40
2023-01-07T23:33:24.705Z,-21.39
2023-01-07T23:38:27.409Z,-21.25
2023-01-07T23:43:30.974Z,-21.34
2023-01-07T23:48:35.260Z,-21.42
2023-01-07T23:53:38.439Z,-21.40
2023-01-07T23:58:41.162Z,-21.45
